Time;durP1;ratioP1;P1;durP2;ratioP2;P2;SDS_P1;SDS_P2;PMS_P1;PMS_P2;Temp;Humidity;BMP_temperature;BMP_pressure;BME280_temperature;BME280_humidity;BME280_pressure;Samples;Min_cycle;Max_cycle;Signal;HPM_P1;HPM_P2
2021/04/30 00:01:34;;;;;;;28.25;16.95;;;;;;;13.38;69.72;97869.77;2243590;79;21125;-79
2021/04/30 00:04:35;;;;;;;28.35;16.77;;;;;;;13.32;69.70;97866.17;2243575;79;21130;-79
2021/04/30 00:07:37;;;;;;;21.48;14.40;;;;;;;13.27;70.00;97876.55;2243473;79;21137;-79
2021/04/30 00:10:38;;;;;;;20.85;14.58;;;;;;;13.24;70.54;97865.13;2243700;79;21182;-78
2021/04/30 00:13:41;;;;;;;24.00;13.55;;;;;;;13.24;70.68;97851.98;2243584;79;21150;-79
2021/04/30 00:16:43;;;;;;;21.77;14.03;;;;;;;13.21;70.93;97839.80;2243436;79;21691;-79
2021/04/30 00:19:45;;;;;;;19.48;13.43;;;;;;;13.20;71.56;97840.83;2243425;79;21295;-77
2021/04/30 00:22:46;;;;;;;22.80;15.25;;;;;;;13.17;71.42;97834.67;2233555;79;21105;-78
2021/04/30 00:25:48;;;;;;;63.68;44.63;;;;;;;13.15;71.60;97825.66;2206448;79;21152;-77
2021/04/30 00:28:51;;;;;;;67.70;35.73;;;;;;;13.10;71.89;97822.39;2242564;79;21260;-78
2021/04/30 00:31:52;;;;;;;21.23;14.73;;;;;;;13.14;72.20;97835.88;2243245;79;21170;-78
2021/04/30 00:34:54;;;;;;;15.88;11.85;;;;;;;13.16;72.20;97863.26;2243395;79;21304;-77
2021/04/30 00:37:55;;;;;;;15.20;11.05;;;;;;;13.07;73.29;97843.86;2243500;79;21142;-78
2021/04/30 00:40:57;;;;;;;12.23;9.68;;;;;;;12.99;73.21;97883.54;2243189;79;21177;-79
2021/04/30 00:43:58;;;;;;;14.60;8.55;;;;;;;12.92;73.67;97860.96;2243175;79;21182;-78
2021/04/30 00:47:00;;;;;;;11.90;9.33;;;;;;;12.86;73.58;97884.94;2243333;79;21847;-79
2021/04/30 00:50:01;;;;;;;33.02;18.30;;;;;;;12.79;73.92;97881.55;2243368;79;21135;-79
2021/04/30 00:53:03;;;;;;;18.82;11.00;;;;;;;12.82;74.06;97870.64;2227241;79;21281;-78
2021/04/30 00:56:05;;;;;;;19.77;11.35;;;;;;;12.87;74.45;97877.86;2202128;79;21281;-79
2021/04/30 00:59:07;;;;;;;18.10;11.63;;;;;;;12.79;74.52;97881.05;2201934;79;21285;-79
2021/04/30 01:02:08;;;;;;;16.50;11.78;;;;;;;12.80;74.63;97883.99;2201739;81;21789;-77
2021/04/30 01:05:10;;;;;;;11.90;9.25;;;;;;;12.78;74.83;97889.14;2204045;79;21326;-78
2021/04/30 01:08:12;;;;;;;11.45;8.38;;;;;;;12.80;74.93;97877.91;2243099;79;21308;-77
2021/04/30 01:11:14;;;;;;;9.43;8.08;;;;;;;12.77;75.18;97888.34;2243545;79;21170;-78
2021/04/30 01:14:16;;;;;;;9.88;8.40;;;;;;;12.77;75.36;97891.48;2243210;79;21301;-78
2021/04/30 01:17:18;;;;;;;10.63;8.15;;;;;;;12.74;75.60;97884.03;2243094;79;21150;-79
2021/04/30 01:20:20;;;;;;;9.40;7.62;;;;;;;12.71;75.37;97884.44;2216477;79;21139;-80
2021/04/30 01:23:22;;;;;;;9.80;7.62;;;;;;;12.71;75.70;97877.39;2202050;81;21147;-78
2021/04/30 01:26:23;;;;;;;10.18;8.08;;;;;;;12.74;75.71;97880.89;2201642;81;21309;-77
2021/04/30 01:29:25;;;;;;;11.18;8.38;;;;;;;12.74;75.77;97887.46;2201697;81;21305;-78
2021/04/30 01:32:27;;;;;;;13.08;8.93;;;;;;;12.80;76.22;97881.84;2202035;81;21317;-78
2021/04/30 01:35:29;;;;;;;9.65;7.97;;;;;;;12.85;76.10;97876.77;2202002;81;21115;-79
2021/04/30 01:38:31;;;;;;;12.40;8.53;;;;;;;12.79;75.83;97882.86;2202003;81;21313;-77
2021/04/30 01:41:33;;;;;;;12.43;8.75;;;;;;;12.71;75.97;97889.69;2201791;81;21186;-78
2021/04/30 01:44:35;;;;;;;13.40;9.63;;;;;;;12.67;76.25;97888.52;2201980;81;21329;-77
2021/04/30 01:47:37;;;;;;;13.10;10.93;;;;;;;12.66;76.36;97892.16;2235986;79;21166;-78
2021/04/30 01:50:38;;;;;;;22.70;16.95;;;;;;;12.64;76.55;97888.95;2243135;79;21300;-77
2021/04/30 01:53:40;;;;;;;29.40;17.55;;;;;;;12.61;76.85;97894.10;2225048;79;21160;-79
2021/04/30 01:56:42;;;;;;;31.02;16.93;;;;;;;12.57;77.01;97898.69;2204332;81;21261;-79
2021/04/30 01:59:43;;;;;;;27.58;16.00;;;;;;;12.56;77.20;97907.08;2220860;80;21285;-78
2021/04/30 02:02:46;;;;;;;23.55;14.60;;;;;;;12.55;77.27;97902.84;2221105;80;21713;-78
2021/04/30 02:05:48;;;;;;;14.95;11.93;;;;;;;12.55;77.43;97903.35;2220793;80;21261;-78
2021/04/30 02:08:50;;;;;;;16.48;12.53;;;;;;;12.56;77.53;97900.52;2222265;80;21257;-77
2021/04/30 02:11:53;;;;;;;16.77;12.23;;;;;;;12.56;77.56;97902.34;2223705;80;21192;-77
2021/04/30 02:14:54;;;;;;;14.43;11.28;;;;;;;12.57;77.90;97893.44;2206684;80;21305;-77
2021/04/30 02:17:57;;;;;;;16.37;11.83;;;;;;;12.58;77.73;97897.67;2232858;80;21158;-77
2021/04/30 02:20:59;;;;;;;18.12;12.37;;;;;;;12.59;77.95;97892.20;2232901;80;21166;-77
2021/04/30 02:24:01;;;;;;;15.68;11.25;;;;;;;12.60;77.97;97895.63;2233028;80;21207;-78
2021/04/30 02:27:03;;;;;;;17.82;12.95;;;;;;;12.57;77.98;97898.69;2236007;79;21425;-78
2021/04/30 02:30:05;;;;;;;16.65;11.35;;;;;;;12.57;78.32;97892.13;2242562;79;21689;-78
2021/04/30 02:33:07;;;;;;;16.60;12.33;;;;;;;12.63;78.28;97901.28;2243444;79;21292;-78
2021/04/30 02:36:08;;;;;;;16.75;12.37;;;;;;;12.65;78.26;97905.81;2244288;79;21304;-78
2021/04/30 02:39:10;;;;;;;18.45;11.90;;;;;;;12.66;78.49;97900.05;2244570;79;21273;-79
2021/04/30 02:42:15;;;;;;;18.05;11.78;;;;;;;12.63;78.47;97899.97;2244405;79;21637;-78
2021/04/30 02:45:17;;;;;;;14.70;11.20;;;;;;;12.63;78.64;97907.84;2235893;79;21311;-78
2021/04/30 02:48:24;;;;;;;16.23;11.78;;;;;;;12.65;78.71;97908.44;2227121;80;21186;-78
2021/04/30 02:51:26;;;;;;;18.92;11.97;;;;;;;12.64;78.69;97919.95;2226930;80;21313;-78
2021/04/30 02:54:27;;;;;;;17.05;12.03;;;;;;;12.64;78.77;97922.58;2200392;80;21681;-78
2021/04/30 02:57:32;;;;;;;18.05;11.73;;;;;;;12.64;78.98;97921.27;2200429;81;21601;-77
2021/04/30 03:00:33;;;;;;;15.10;10.95;;;;;;;12.65;79.16;97927.33;2200223;81;21308;-77
2021/04/30 03:03:35;;;;;;;14.60;11.18;;;;;;;12.63;79.08;97930.17;2200140;81;21328;-77
2021/04/30 03:06:38;;;;;;;16.25;12.30;;;;;;;12.68;79.05;97933.46;2200130;81;21308;-78
2021/04/30 03:09:40;;;;;;;21.02;13.70;;;;;;;12.73;79.16;97936.27;2200380;81;21138;-79
2021/04/30 03:12:42;;;;;;;19.57;14.05;;;;;;;12.72;79.20;97934.66;2200183;81;21133;-78
2021/04/30 03:15:44;;;;;;;15.13;12.13;;;;;;;12.70;79.18;97937.98;2200504;81;22193;-78
2021/04/30 03:18:46;;;;;;;15.80;11.55;;;;;;;12.68;79.22;97934.77;2200512;81;21111;-78
2021/04/30 03:21:48;;;;;;;15.75;11.53;;;;;;;12.60;79.31;97932.39;2200125;81;21264;-79
2021/04/30 03:24:49;;;;;;;19.95;12.85;;;;;;;12.60;79.60;97939.77;2200124;81;21175;-79
2021/04/30 03:27:51;;;;;;;18.12;13.60;;;;;;;12.62;79.65;97945.63;2200450;81;21153;-78
2021/04/30 03:30:53;;;;;;;21.25;16.07;;;;;;;12.65;79.60;97950.45;2200136;81;21767;-78
2021/04/30 03:33:54;;;;;;;22.15;17.37;;;;;;;12.65;79.67;97947.02;2200177;81;21307;-78
2021/04/30 03:36:56;;;;;;;37.40;19.35;;;;;;;12.62;79.71;97946.95;2200146;81;21804;-77
2021/04/30 03:39:58;;;;;;;40.45;20.85;;;;;;;12.61;79.50;97949.76;2200137;81;21273;-79
2021/04/30 03:42:59;;;;;;;32.75;17.35;;;;;;;12.58;79.77;97952.30;2200159;81;21118;-79
2021/04/30 03:46:01;;;;;;;26.42;15.38;;;;;;;12.63;79.86;97953.80;2200254;81;21178;-78
2021/04/30 03:49:05;;;;;;;25.25;14.40;;;;;;;12.63;79.85;97956.44;2200350;81;21145;-79
2021/04/30 03:52:06;;;;;;;21.50;13.88;;;;;;;12.66;79.83;97956.00;2204425;79;21174;-77
2021/04/30 03:55:08;;;;;;;20.12;14.13;;;;;;;12.64;79.78;97961.17;2239163;79;21270;-78
2021/04/30 03:58:10;;;;;;;17.67;12.90;;;;;;;12.63;79.98;97964.82;2239284;79;21130;-78
2021/04/30 04:01:12;;;;;;;17.52;12.75;;;;;;;12.62;80.09;97973.69;2239199;79;21139;-78
2021/04/30 04:04:14;;;;;;;21.23;13.85;;;;;;;12.62;80.13;97969.75;2239456;79;21119;-78
2021/04/30 04:07:15;;;;;;;20.95;13.60;;;;;;;12.64;80.22;97976.42;2239625;79;21150;-78
2021/04/30 04:10:17;;;;;;;21.20;14.15;;;;;;;12.63;80.17;97977.44;2239435;79;21277;-77
2021/04/30 04:13:19;;;;;;;19.02;14.15;;;;;;;12.68;80.18;97982.05;2239582;79;21277;-78
2021/04/30 04:16:22;;;;;;;18.57;14.45;;;;;;;12.69;80.19;97993.66;2239399;79;21278;-79
2021/04/30 04:19:24;;;;;;;23.65;15.68;;;;;;;12.72;80.20;97990.63;2239662;79;21285;-78
2021/04/30 04:22:26;;;;;;;19.00;14.38;;;;;;;12.79;80.29;97989.25;2239693;79;21301;-78
2021/04/30 04:25:28;;;;;;;17.25;12.82;;;;;;;12.88;80.10;97993.75;2239772;79;21273;-79
2021/04/30 04:28:30;;;;;;;18.90;13.65;;;;;;;12.91;79.94;98001.23;2239332;79;21273;-77
2021/04/30 04:31:32;;;;;;;23.57;15.00;;;;;;;12.94;79.99;98000.80;2239802;79;21289;-78
2021/04/30 04:34:34;;;;;;;17.87;12.98;;;;;;;13.00;79.93;98004.70;2239530;79;21729;-77
2021/04/30 04:37:36;;;;;;;25.37;15.40;;;;;;;13.07;79.90;97998.91;2239818;79;21143;-78
2021/04/30 04:40:39;;;;;;;30.25;19.82;;;;;;;13.14;79.77;98014.61;2239666;79;21305;-77
2021/04/30 04:43:41;;;;;;;31.93;22.42;;;;;;;13.18;79.85;98015.81;2241770;77;21305;-78
2021/04/30 04:46:43;;;;;;;20.85;14.53;;;;;;;13.30;79.87;98019.90;2269982;78;21150;-78
2021/04/30 04:49:45;;;;;;;17.77;13.15;;;;;;;13.39;79.62;98022.56;2241719;79;21203;-77
2021/04/30 04:52:47;;;;;;;17.73;12.80;;;;;;;13.53;79.53;98027.19;2240709;78;21167;-78
2021/04/30 04:55:48;;;;;;;18.62;14.70;;;;;;;13.64;79.41;98036.52;2241846;79;21191;-77
2021/04/30 04:58:50;;;;;;;16.55;13.08;;;;;;;13.67;79.49;98040.55;2241975;79;21123;-78
2021/04/30 05:01:52;;;;;;;18.73;13.90;;;;;;;13.66;79.28;98039.73;2241801;79;22183;-77
2021/04/30 05:04:54;;;;;;;15.98;12.43;;;;;;;13.64;79.30;98044.93;2242091;79;21154;-77
2021/04/30 05:07:56;;;;;;;15.50;12.93;;;;;;;13.63;79.26;98045.95;2241793;79;21195;-78
2021/04/30 05:10:58;;;;;;;18.80;13.40;;;;;;;13.67;79.34;98051.06;2242020;79;21567;-78
2021/04/30 05:14:00;;;;;;;16.00;12.25;;;;;;;13.72;79.19;98050.44;2241958;79;21321;-79
2021/04/30 05:17:01;;;;;;;18.02;13.53;;;;;;;13.72;79.06;98049.92;2241772;79;21288;-77
2021/04/30 05:20:03;;;;;;;29.20;21.33;;;;;;;13.77;79.17;98057.95;2258950;78;21546;-77
2021/04/30 05:23:05;;;;;;;20.57;14.68;;;;;;;13.83;79.01;98070.77;2285104;78;21257;-79
2021/04/30 05:26:07;;;;;;;17.67;12.05;;;;;;;13.85;78.85;98076.11;2285010;78;21170;-81
2021/04/30 05:29:11;;;;;;;17.77;12.05;;;;;;;13.82;78.30;98082.33;2283165;78;21730;-79
2021/04/30 05:32:13;;;;;;;20.10;14.38;;;;;;;13.85;78.20;98082.69;2270558;78;21292;-79
2021/04/30 05:35:14;;;;;;;14.85;11.38;;;;;;;13.89;78.31;98083.85;2254621;78;21320;-78
2021/04/30 05:38:16;;;;;;;12.35;10.58;;;;;;;14.00;77.95;98079.73;2242680;79;21182;-78
2021/04/30 05:41:17;;;;;;;14.07;11.05;;;;;;;14.02;77.08;98090.84;2243110;79;21268;-77
2021/04/30 05:44:19;;;;;;;11.48;10.32;;;;;;;14.05;76.21;98083.02;2243203;79;21317;-78
2021/04/30 05:47:21;;;;;;;12.58;10.05;;;;;;;14.23;75.44;98089.63;2243429;79;21166;-79
2021/04/30 05:50:23;;;;;;;11.28;8.28;;;;;;;14.51;74.55;98090.48;2243424;79;21308;-79
2021/04/30 05:53:25;;;;;;;10.53;8.18;;;;;;;14.71;68.08;98095.00;2242433;79;21752;-79
2021/04/30 05:56:27;;;;;;;9.58;7.37;;;;;;;14.80;70.98;98095.00;2241340;79;21325;-79
2021/04/30 05:59:29;;;;;;;9.70;8.50;;;;;;;14.83;69.62;98095.61;2241279;79;21748;-81
2021/04/30 06:02:31;;;;;;;9.58;7.92;;;;;;;15.04;69.17;98103.83;2240968;79;21586;-78
2021/04/30 06:05:33;;;;;;;8.75;7.90;;;;;;;15.04;69.17;98103.83;2241323;78;21272;-78
2021/04/30 06:08:35;;;;;;;8.83;8.03;;;;;;;15.03;66.67;98106.70;2241057;79;21288;-81
2021/04/30 06:11:37;;;;;;;8.48;7.60;;;;;;;15.08;67.58;98111.58;2240915;79;21355;-77
2021/04/30 06:14:39;;;;;;;9.70;7.30;;;;;;;15.20;66.47;98116.12;2240803;79;21321;-79
2021/04/30 06:17:41;;;;;;;7.47;6.72;;;;;;;15.19;65.11;98120.59;2241354;79;21320;-78
2021/04/30 06:20:43;;;;;;;8.65;7.80;;;;;;;15.12;65.57;98114.59;2241315;79;21163;-79
2021/04/30 06:23:45;;;;;;;8.20;6.92;;;;;;;15.05;65.58;98110.71;2241061;79;21328;-78
2021/04/30 06:26:47;;;;;;;8.23;7.30;;;;;;;15.14;65.34;98109.89;2241025;79;21617;-79
2021/04/30 06:29:49;;;;;;;8.18;7.37;;;;;;;15.23;64.68;98114.34;2241429;79;21203;-78
2021/04/30 06:32:50;;;;;;;7.55;6.80;;;;;;;15.50;63.26;98113.45;2240973;79;21289;-78
2021/04/30 06:35:52;;;;;;;9.50;6.30;;;;;;;15.50;63.26;98113.45;2241698;79;21154;-78
2021/04/30 06:38:54;;;;;;;6.50;5.97;;;;;;;15.53;63.09;98120.39;2240900;79;21285;-79
2021/04/30 06:41:56;;;;;;;7.17;6.35;;;;;;;15.55;63.22;98121.00;2241359;79;21261;-79
2021/04/30 06:44:58;;;;;;;8.13;6.40;;;;;;;15.49;61.91;98122.41;2240778;79;21198;-77
2021/04/30 06:48:00;;;;;;;6.30;5.80;;;;;;;15.44;61.66;98131.49;2240067;79;21131;-77
2021/04/30 06:51:02;;;;;;;6.08;5.47;;;;;;;15.35;60.56;98123.89;2240145;79;21868;-77
2021/04/30 06:54:04;;;;;;;6.00;5.37;;;;;;;15.26;59.59;98129.70;2241162;79;21177;-77
2021/04/30 06:57:05;;;;;;;6.35;5.70;;;;;;;15.21;60.33;98133.55;2242139;79;21261;-77
2021/04/30 07:00:08;;;;;;;5.90;5.30;;;;;;;15.14;58.95;98133.63;2255688;78;21264;-78
2021/04/30 07:03:10;;;;;;;6.92;5.42;;;;;;;15.13;59.19;98135.97;2239617;79;21117;-79
2021/04/30 07:06:12;;;;;;;7.20;5.83;;;;;;;15.13;59.19;98135.97;2239779;79;21118;-79
2021/04/30 07:09:14;;;;;;;7.33;5.78;;;;;;;15.22;58.31;98132.00;2239668;79;21289;-80
2021/04/30 07:12:16;;;;;;;5.65;5.17;;;;;;;15.22;58.43;98121.96;2239820;79;21129;-81
2021/04/30 07:15:18;;;;;;;6.95;5.42;;;;;;;15.48;58.23;98134.80;2246847;78;21249;-79
2021/04/30 07:25:11;;;;;;;4.90;4.40;;;;;;;16.61;54.31;98134.28;2284741;78;21162;-78
2021/04/30 07:28:12;;;;;;;10.13;6.80;;;;;;;16.88;54.04;98131.97;2285171;78;21698;-78
2021/04/30 07:31:14;;;;;;;11.45;8.53;;;;;;;17.08;53.19;98132.36;2284843;78;21162;-78
2021/04/30 07:34:16;;;;;;;11.12;8.63;;;;;;;17.12;51.67;98134.04;2254555;78;21167;-77
2021/04/30 07:37:18;;;;;;;10.63;8.70;;;;;;;17.08;48.96;98138.17;2285139;78;21135;-77
2021/04/30 07:40:20;;;;;;;5.47;4.97;;;;;;;16.93;48.83;98139.50;2284904;78;21100;-79
2021/04/30 07:43:22;;;;;;;6.65;6.03;;;;;;;16.90;49.39;98137.82;2285028;78;21110;-77
2021/04/30 07:46:24;;;;;;;5.20;4.67;;;;;;;16.84;46.40;98136.13;2284738;78;21288;-78
2021/04/30 07:49:25;;;;;;;4.75;4.45;;;;;;;16.75;47.47;98147.58;2284805;78;21233;-78
2021/04/30 07:52:27;;;;;;;4.83;4.42;;;;;;;16.64;46.46;98139.09;2264014;78;21170;-79
2021/04/30 07:55:29;;;;;;;5.12;4.72;;;;;;;16.49;47.30;98144.36;2272843;78;21716;-78
2021/04/30 07:58:31;;;;;;;6.22;4.20;;;;;;;16.38;46.04;98145.69;2284492;78;21657;-79
2021/04/30 08:01:33;;;;;;;6.60;5.45;;;;;;;16.35;46.00;98147.45;2285083;78;21304;-79
2021/04/30 08:04:34;;;;;;;4.97;4.47;;;;;;;16.34;44.00;98147.17;2284883;78;21155;-78
2021/04/30 08:07:37;;;;;;;6.37;5.20;;;;;;;16.25;45.94;98145.91;2284602;78;21170;-78
2021/04/30 08:10:38;;;;;;;12.58;8.30;;;;;;;16.31;45.37;98146.31;2284165;78;21181;-78
2021/04/30 08:13:39;;;;;;;7.58;6.45;;;;;;;16.30;43.20;98148.16;2284620;78;21843;-79
2021/04/30 08:16:41;;;;;;;5.65;5.15;;;;;;;16.36;41.33;98144.58;2284345;78;21189;-78
2021/04/30 08:19:43;;;;;;;5.92;5.30;;;;;;;16.58;43.79;98160.67;2284959;78;21147;-78
2021/04/30 08:22:45;;;;;;;7.85;5.47;;;;;;;16.93;44.26;98155.87;2284671;78;21304;-78
2021/04/30 08:25:47;;;;;;;5.37;4.25;;;;;;;17.20;44.51;98157.47;2284864;78;21149;-79
2021/04/30 08:28:49;;;;;;;5.12;4.62;;;;;;;17.24;43.21;98162.56;2284696;78;21247;-78
2021/04/30 08:31:51;;;;;;;6.33;5.15;;;;;;;17.12;42.86;98167.09;2284798;78;21308;-78
2021/04/30 08:34:53;;;;;;;8.05;5.15;;;;;;;16.95;41.48;98164.37;2284996;78;21296;-78
2021/04/30 08:37:55;;;;;;;8.45;6.00;;;;;;;16.90;43.58;98161.09;2283967;77;21163;-78
2021/04/30 08:40:57;;;;;;;7.80;5.85;;;;;;;16.80;43.72;98156.92;2284247;78;21123;-78
2021/04/30 08:43:58;;;;;;;5.05;4.58;;;;;;;16.77;43.31;98162.69;2284224;78;21313;-78
2021/04/30 08:47:00;;;;;;;5.92;5.30;;;;;;;16.68;42.04;98152.16;2272124;78;21155;-79
2021/04/30 08:50:02;;;;;;;4.75;4.40;;;;;;;16.60;41.78;98162.55;2280793;78;21155;-79
2021/04/30 08:53:04;;;;;;;7.28;5.40;;;;;;;16.50;41.55;98163.66;2284453;78;21154;-79
2021/04/30 08:56:06;;;;;;;5.65;5.15;;;;;;;16.44;42.96;98161.92;2262211;78;21162;-79
2021/04/30 08:59:07;;;;;;;4.67;4.20;;;;;;;16.41;42.92;98165.84;2261737;79;21520;-79
2021/04/30 09:02:09;;;;;;;6.03;5.45;;;;;;;16.32;42.32;98167.73;2261538;79;21159;-78
2021/04/30 09:05:11;;;;;;;6.42;4.17;;;;;;;16.21;41.64;98183.35;2261131;79;21162;-79
2021/04/30 09:08:12;;;;;;;5.35;4.72;;;;;;;16.18;41.48;98176.38;2261460;79;21167;-78
2021/04/30 09:11:14;;;;;;;5.20;4.70;;;;;;;16.21;41.77;98174.11;2261047;79;21163;-78
2021/04/30 09:14:16;;;;;;;6.55;4.87;;;;;;;16.36;43.93;98172.83;2249006;78;21277;-79
2021/04/30 09:17:17;;;;;;;6.05;5.45;;;;;;;16.54;43.74;98169.27;2240997;79;21253;-79
2021/04/30 09:20:19;;;;;;;5.50;5.00;;;;;;;16.67;43.47;98172.50;2241215;79;21249;-79
2021/04/30 09:23:21;;;;;;;4.72;4.25;;;;;;;16.75;42.30;98185.91;2240895;79;21322;-78
2021/04/30 09:26:22;;;;;;;6.37;3.92;;;;;;;16.85;41.52;98186.13;2241396;79;21320;-79
2021/04/30 09:29:24;;;;;;;4.90;4.25;;;;;;;16.77;39.42;98183.83;2241316;79;21155;-78
2021/04/30 09:32:26;;;;;;;5.87;3.87;;;;;;;16.81;39.46;98175.71;2241107;79;21139;-78
2021/04/30 09:35:28;;;;;;;4.70;4.28;;;;;;;16.74;38.98;98173.21;2240983;79;21257;-79
2021/04/30 09:38:29;;;;;;;7.28;5.08;;;;;;;16.66;39.71;98183.30;2245356;78;21577;-79
2021/04/30 09:41:32;;;;;;;5.67;4.58;;;;;;;16.57;39.67;98189.45;2261490;79;21174;-78
2021/04/30 09:44:33;;;;;;;5.33;4.37;;;;;;;16.67;39.46;98193.64;2261704;79;21155;-78
2021/04/30 09:47:35;;;;;;;5.75;4.47;;;;;;;16.83;40.39;98185.56;2261476;79;21144;-80
2021/04/30 09:50:36;;;;;;;5.22;4.72;;;;;;;16.85;39.91;98194.05;2261568;79;21630;-82
2021/04/30 09:53:38;;;;;;;5.20;4.70;;;;;;;16.72;39.55;98187.67;2263529;78;21293;-80
2021/04/30 09:56:39;;;;;;;7.08;5.30;;;;;;;16.51;39.01;98193.01;2284844;78;21118;-78
2021/04/30 09:59:41;;;;;;;6.30;5.25;;;;;;;16.35;40.00;98198.97;2278664;78;21142;-78
2021/04/30 10:02:45;;;;;;;6.22;4.78;;;;;;;16.27;40.42;98201.42;2284351;78;21298;-77
2021/04/30 10:05:46;;;;;;;6.92;5.33;;;;;;;16.29;40.05;98195.42;2257067;78;21165;-77
2021/04/30 10:08:48;;;;;;;11.65;5.67;;;;;;;16.41;39.46;98193.58;2267583;78;21442;-77
2021/04/30 10:11:49;;;;;;;5.15;4.67;;;;;;;16.51;40.81;98183.76;2270806;78;21229;-77
2021/04/30 10:14:51;;;;;;;5.75;5.15;;;;;;;16.65;40.26;98195.72;2260634;78;21253;-77
2021/04/30 10:17:53;;;;;;;5.45;4.80;;;;;;;16.72;39.70;98189.00;2256863;78;21451;-82
2021/04/30 10:20:54;;;;;;;5.15;4.45;;;;;;;16.75;39.55;98188.03;2265980;78;21728;-80
2021/04/30 10:23:56;;;;;;;7.60;5.20;;;;;;;16.83;40.55;98188.20;2275627;78;21546;-80
2021/04/30 10:26:57;;;;;;;14.63;4.75;;;;;;;16.97;40.52;98182.93;2284199;78;21650;-79
2021/04/30 10:29:59;;;;;;;5.80;4.87;;;;;;;17.16;40.56;98176.16;2278835;78;21284;-82
2021/04/30 10:33:01;;;;;;;5.65;5.03;;;;;;;17.35;39.43;98181.03;2262504;78;21150;-83
2021/04/30 10:36:03;;;;;;;6.28;5.08;;;;;;;17.44;40.21;98180.14;2256443;78;21311;-79
2021/04/30 10:39:05;;;;;;;6.67;4.90;;;;;;;17.54;40.49;98185.62;2284279;78;21543;-78
2021/04/30 10:42:06;;;;;;;5.53;4.12;;;;;;;17.55;40.31;98184.58;2257295;78;21166;-79
2021/04/30 10:45:08;;;;;;;8.38;4.87;;;;;;;17.60;40.10;98175.94;2284498;78;21221;-79
2021/04/30 10:48:10;;;;;;;5.05;3.87;;;;;;;17.68;40.15;98176.08;2257117;78;21142;-79
2021/04/30 10:51:12;;;;;;;3.70;3.40;;;;;;;17.84;39.51;98174.02;2284404;78;21229;-78
2021/04/30 10:54:14;;;;;;;3.87;3.55;;;;;;;17.99;39.59;98173.45;2256920;77;21150;-79
2021/04/30 10:57:16;;;;;;;6.05;3.75;;;;;;;18.17;40.03;98164.73;2274515;78;21260;-78
2021/04/30 11:00:17;;;;;;;3.25;2.95;;;;;;;18.39;37.43;98168.00;2256559;78;21082;-78
2021/04/30 11:03:20;;;;;;;6.90;3.42;;;;;;;18.43;37.44;98164.60;2284285;78;21324;-79
2021/04/30 11:06:22;;;;;;;3.40;3.10;;;;;;;18.43;38.35;98166.45;2256438;78;21229;-79
2021/04/30 11:09:24;;;;;;;3.42;3.15;;;;;;;18.50;38.93;98170.27;2259257;78;21173;-79
2021/04/30 11:12:25;;;;;;;4.22;3.87;;;;;;;18.64;38.25;98178.14;2282056;78;21579;-80
2021/04/30 11:15:27;;;;;;;4.72;3.02;;;;;;;18.69;36.06;98168.97;2284010;78;21268;-80
2021/04/30 11:18:30;;;;;;;3.77;3.10;;;;;;;18.59;35.58;98172.78;2271842;78;21137;-79
2021/04/30 11:21:32;;;;;;;4.47;3.12;;;;;;;18.58;37.33;98181.26;2269700;78;21296;-79
2021/04/30 11:24:33;;;;;;;4.15;2.60;;;;;;;18.69;36.81;98175.59;2270825;78;21302;-79
2021/04/30 11:27:35;;;;;;;3.77;3.47;;;;;;;18.85;36.79;98178.73;2270362;78;21178;-79
2021/04/30 11:30:37;;;;;;;4.78;3.15;;;;;;;18.91;34.93;98171.63;2257512;78;21127;-80
2021/04/30 11:33:39;;;;;;;4.70;3.35;;;;;;;18.84;35.45;98171.83;2283319;78;21315;-80
2021/04/30 11:36:40;;;;;;;4.37;2.98;;;;;;;18.74;35.51;98163.72;2257595;78;21142;-80
2021/04/30 11:39:42;;;;;;;3.60;3.35;;;;;;;18.70;36.10;98168.72;2255694;78;21315;-81
2021/04/30 11:42:44;;;;;;;7.08;3.98;;;;;;;18.66;35.83;98166.30;2267456;78;22228;-80
2021/04/30 11:45:46;;;;;;;4.12;2.80;;;;;;;18.59;34.90;98167.48;2272008;78;21124;-79
2021/04/30 11:48:47;;;;;;;6.58;4.60;;;;;;;18.50;34.54;98175.56;2283570;78;21300;-80
2021/04/30 11:51:49;;;;;;;4.12;3.17;;;;;;;18.50;34.88;98175.05;2256525;78;21141;-78
2021/04/30 11:54:51;;;;;;;7.37;3.60;;;;;;;18.62;35.04;98165.66;2277130;78;21171;-78
2021/04/30 11:57:53;;;;;;;4.03;3.60;;;;;;;18.69;33.48;98157.04;2247333;79;21736;-79
2021/04/30 12:00:55;;;;;;;5.17;3.00;;;;;;;18.71;33.17;98165.02;2251765;79;21299;-80
2021/04/30 12:03:56;;;;;;;4.17;2.90;;;;;;;18.77;34.37;98165.10;2242002;79;21274;-79
2021/04/30 12:06:58;;;;;;;5.40;3.50;;;;;;;18.80;34.51;98156.12;2260875;79;21172;-80
2021/04/30 12:09:59;;;;;;;3.27;2.98;;;;;;;18.83;34.05;98156.14;2247165;79;21191;-79
2021/04/30 12:13:01;;;;;;;2.70;2.50;;;;;;;18.88;34.89;98146.94;2259260;78;21587;-79
2021/04/30 12:16:02;;;;;;;4.20;3.05;;;;;;;18.88;34.08;98151.72;2250636;78;21147;-79
2021/04/30 12:19:04;;;;;;;3.55;3.35;;;;;;;18.86;32.09;98149.84;2250870;79;22408;-79
2021/04/30 12:22:06;;;;;;;3.27;2.87;;;;;;;18.87;33.14;98151.44;2253955;79;21177;-79
2021/04/30 12:25:07;;;;;;;3.05;2.75;;;;;;;18.87;31.57;98158.07;2221148;79;21321;-80
2021/04/30 12:28:09;;;;;;;2.75;2.55;;;;;;;18.73;32.67;98153.64;2203879;81;21114;-78
2021/04/30 12:31:10;;;;;;;3.50;2.40;;;;;;;18.63;32.03;98152.67;2161373;82;21197;-78
2021/04/30 12:34:12;;;;;;;2.22;2.02;;;;;;;18.65;31.37;98146.13;2196657;79;21296;-81
2021/04/30 12:37:14;;;;;;;2.55;2.35;;;;;;;18.66;31.06;98153.56;2202298;81;21177;-79
2021/04/30 12:40:16;;;;;;;4.17;2.50;;;;;;;18.73;30.84;98150.98;2199562;81;21257;-79
2021/04/30 12:43:17;;;;;;;4.33;1.95;;;;;;;18.82;30.48;98167.80;2163438;82;21280;-78
2021/04/30 12:46:19;;;;;;;2.35;1.92;;;;;;;18.80;30.51;98162.75;2210111;79;21244;-79
2021/04/30 12:49:20;;;;;;;2.80;2.00;;;;;;;18.77;28.90;98161.92;2205558;79;21316;-81
2021/04/30 12:52:22;;;;;;;4.17;2.70;;;;;;;18.72;28.73;98159.99;2205847;79;21149;-81
2021/04/30 12:55:24;;;;;;;4.28;2.20;;;;;;;18.65;27.39;98158.56;2193973;80;21725;-78
2021/04/30 12:58:25;;;;;;;4.55;2.30;;;;;;;18.53;28.06;98153.34;2209180;80;21270;-80
2021/04/30 13:01:27;;;;;;;4.80;2.40;;;;;;;18.51;28.81;98155.96;2211338;80;21261;-80
2021/04/30 13:04:28;;;;;;;3.27;2.60;;;;;;;18.54;29.77;98148.84;2195197;81;21774;-78
2021/04/30 13:07:30;;;;;;;3.70;3.40;;;;;;;18.61;29.68;98152.12;2197814;79;21158;-80
2021/04/30 13:10:32;;;;;;;5.40;3.40;;;;;;;18.61;29.03;98150.80;2231004;79;21131;-81
2021/04/30 13:13:34;;;;;;;6.05;3.40;;;;;;;18.59;29.74;98148.39;2236779;79;21134;-80
2021/04/30 13:16:35;;;;;;;4.00;3.62;;;;;;;18.64;30.80;98147.65;2238899;79;21269;-82
2021/04/30 13:19:37;;;;;;;4.30;3.92;;;;;;;18.70;31.07;98144.05;2239121;79;21142;-80
2021/04/30 13:22:39;;;;;;;6.40;5.80;;;;;;;18.70;31.30;98151.48;2231685;79;21308;-83
2021/04/30 13:25:40;;;;;;;6.45;5.85;;;;;;;18.69;30.71;98137.95;2237884;79;21174;-81
2021/04/30 13:28:42;;;;;;;6.12;4.92;;;;;;;18.69;31.06;98149.08;2236191;79;21186;-81
2021/04/30 13:31:44;;;;;;;4.30;3.95;;;;;;;18.67;31.29;98142.70;2229211;79;22336;-79
2021/04/30 13:34:45;;;;;;;5.87;3.05;;;;;;;18.74;31.54;98135.88;2237309;79;21264;-82
2021/04/30 13:37:52;;;;;;;3.60;3.30;;;;;;;18.79;31.12;98130.66;2226704;79;21273;-81
2021/04/30 13:40:50;;;;;;;5.42;3.72;;;;;;;18.81;31.29;98131.72;2204690;80;21149;-79
2021/04/30 13:43:52;;;;;;;5.45;4.08;;;;;;;18.87;31.71;98130.75;2208409;80;21197;-79
2021/04/30 13:46:53;;;;;;;5.25;3.85;;;;;;;18.89;31.48;98131.30;2234906;80;21173;-81
2021/04/30 13:49:56;;;;;;;4.58;3.98;;;;;;;18.88;31.63;98123.87;2241143;79;21352;-80
2021/04/30 13:52:58;;;;;;;4.20;3.87;;;;;;;18.91;30.98;98127.34;2238267;79;21327;-80
2021/04/30 13:55:59;;;;;;;3.45;3.25;;;;;;;18.91;31.74;98129.99;2272674;78;21324;-80
2021/04/30 13:59:03;;;;;;;3.58;3.33;;;;;;;18.94;31.91;98129.52;2254455;78;21189;-80
2021/04/30 14:02:05;;;;;;;4.05;3.75;;;;;;;18.95;31.22;98127.67;2212135;80;21135;-79
2021/04/30 14:05:06;;;;;;;4.42;4.12;;;;;;;18.98;31.58;98132.47;2177389;81;21304;-78
2021/04/30 14:08:08;;;;;;;4.75;4.35;;;;;;;18.90;31.43;98131.57;2176027;81;21178;-79
2021/04/30 14:11:10;;;;;;;4.47;4.08;;;;;;;18.89;31.24;98125.99;2198647;81;21249;-78
2021/04/30 14:14:11;;;;;;;3.17;2.98;;;;;;;18.86;31.37;98136.58;2252821;78;21229;-78